Elong Elong — V3PK3 — position and weather

sailwx.info

Track history (hours):
 
Tides and Currents Weather Stations Pressure Air Temp Water Temp Dewpoint Dewpoint Depression Visibility Wind Speed Wind Dir Waves Ship Positions

Elong Elong

Last reported at 2018-Jan-27 06:10 UTC. Time now 2018-Feb-20 02:07 UTC.
Position N 07°45' W 014°31'.
Warning: this ship's position is 23 days out of date.

Length 167 m; draft 9.2 m.

Type: Cargo ship. MMSI: 312691000.

Date/timePositionNaut miles runAvg speedWind from/ knotsBaromVisibWave heightAir tempDewpointWater temp
2018-Jan-27 06:10N 07°45' W 014°31'410.8
2018-Jan-27 05:45N 07°48' W 014°34'310.8
2018-Jan-27 05:29N 07°49' W 014°36'510.7
2018-Jan-27 05:00N 07°53' W 014°40'510.7
2018-Jan-27 04:31N 07°56' W 014°44'3410.5
2018-Jan-27 01:16N 08°19' W 015°09'310.7
2018-Jan-27 00:59N 08°21' W 015°12'3210.7
2018-Jan-26 21:59N 08°43' W 015°36'510.6
2018-Jan-26 21:28N 08°47' W 015°40'610.5
2018-Jan-26 20:53N 08°51' W 015°45'410.6
2018-Jan-26 20:30N 08°53' W 015°47'510.6
2018-Jan-26 20:00N 08°57' W 015°51'510.6
2018-Jan-26 19:30N 09°01' W 015°56'510.5
2018-Jan-26 19:00N 09°04' W 015°60'510.5
2018-Jan-26 18:30N 09°07' W 016°04'510.4
2018-Jan-26 18:01N 09°11' W 016°08'510.7
2018-Jan-26 17:30N 09°14' W 016°12'610.9
2018-Jan-26 16:59N 09°18' W 016°16'511.0
2018-Jan-26 16:31N 09°22' W 016°20'610.9
2018-Jan-26 15:58N 09°26' W 016°24'510.9
2018-Jan-26 15:30N 09°29' W 016°28'1611.0
2018-Jan-26 14:05N 09°40' W 016°39'110.8
2018-Jan-26 13:59N 09°41' W 016°40'510.9
2018-Jan-26 13:30N 09°45' W 016°43'611.2
2018-Jan-26 13:00N 09°50' W 016°46'611.2
2018-Jan-26 12:28N 09°55' W 016°48'511.4
2018-Jan-26 12:01N 09°60' W 016°51'611.4
2018-Jan-26 11:30N 10°05' W 016°54'611.2
2018-Jan-26 11:00N 10°10' W 016°57'611.3
2018-Jan-26 10:30N 10°15' W 016°60'611.4
2018-Jan-26 10:00N 10°20' W 017°02'611.6
2018-Jan-26 09:30N 10°25' W 017°05'611.6
2018-Jan-26 09:00N 10°30' W 017°08'611.3
2018-Jan-26 08:30N 10°35' W 017°10'  
2018-Jan-22 08:20N 27°03' W 014°36'910.8
2018-Jan-22 07:29N 27°10' W 014°30'510.9
2018-Jan-22 07:00N 27°15' W 014°27'511.0
2018-Jan-22 06:31N 27°19' W 014°23'911.3
2018-Jan-22 05:42N 27°27' W 014°18'311.2
2018-Jan-22 05:28N 27°29' W 014°16'511.3
2018-Jan-22 05:01N 27°33' W 014°13'611.7
2018-Jan-22 04:31N 27°38' W 014°09'611.3
2018-Jan-22 04:00N 27°43' W 014°06'611.0
2018-Jan-22 03:27N 27°48' W 014°02'511.0
2018-Jan-22 03:00N 27°52' W 013°59'510.9
2018-Jan-22 02:30N 27°57' W 013°56'1510.7
2018-Jan-22 01:07N 28°10' W 013°48'110.9
2018-Jan-22 01:00N 28°11' W 013°47'1611.2
2018-Jan-21 23:33N 28°25' W 013°38'2511.3
2018-Jan-21 21:20N 28°47' W 013°24'811.4
2018-Jan-21 20:40N 28°54' W 013°19'511.0
2018-Jan-21 20:11N 28°58' W 013°15'411.0
2018-Jan-21 19:50N 29°01' W 013°13'411.0
2018-Jan-21 19:27N 29°04' W 013°10'510.9
2018-Jan-21 19:01N 29°08' W 013°06'510.7
2018-Jan-21 18:30N 29°12' W 013°02'510.7
2018-Jan-21 18:01N 29°16' W 012°59'7610.3
2018-Jan-21 10:38N 30°16' W 012°05'510.7
2018-Jan-21 10:09N 30°20' W 012°01'110.7
2018-Jan-21 10:00N 30°22' W 011°60'510.5
2018-Jan-21 09:30N 30°26' W 011°56'710.6
2018-Jan-21 08:50N 30°31' W 011°51'410.7
2018-Jan-21 08:30N 30°34' W 011°48'610.6
2018-Jan-21 07:58N 30°38' W 011°44'510.5
2018-Jan-21 07:28N 30°42' W 011°40'510.5
2018-Jan-21 07:00N 30°46' W 011°37'3610.5
2018-Jan-21 03:33N 31°16' W 011°13'110.4
2018-Jan-21 03:29N 31°17' W 011°12'3710.6
2018-Jan-21 00:00N 31°47' W 010°47'357 9.7
2018-Jan-19 11:21N 35°57' W 005°41'3 9.6
2018-Jan-19 11:00N 35°57' W 005°37'4 8.5
2018-Jan-19 10:30N 35°58' W 005°32'4 7.8
2018-Jan-19 10:00N 35°59' W 005°27'4 7.9
2018-Jan-19 09:30N 36°01' W 005°22'4 8.2
2018-Jan-19 09:00N 36°02' W 005°17'5 9.7
2018-Jan-19 08:30N 36°03' W 005°12'5 9.3
2018-Jan-19 08:00N 36°04' W 005°06'4 8.3
2018-Jan-19 07:30N 36°05' W 005°01'4 7.7
2018-Jan-19 06:59N 36°06' W 004°56'4 7.7
2018-Jan-19 06:30N 36°08' W 004°52'8 8.9
2018-Jan-19 05:36N 36°10' W 004°43'  
Track history (hours):
 
Tides and Currents Weather Stations Pressure Air Temp Water Temp Dewpoint Dewpoint Depression Visibility Wind Speed Wind Dir Waves Ship Positions

Elong Elong

Last reported at 2018-Jan-27 06:10 UTC. Time now 2018-Feb-20 02:07 UTC.
Position N 07°45' W 014°31'.
Warning: this ship's position is 23 days out of date.

Length 167 m; draft 9.2 m.

Type: Cargo ship. MMSI: 312691000.

Date/timePositionNaut miles runAvg speedWind from/ knotsBaromVisibWave heightAir tempDewpointWater temp
2018-Jan-27 06:10N 07°45' W 014°31'410.8
2018-Jan-27 05:45N 07°48' W 014°34'310.8
2018-Jan-27 05:29N 07°49' W 014°36'510.7
2018-Jan-27 05:00N 07°53' W 014°40'510.7
2018-Jan-27 04:31N 07°56' W 014°44'3410.5
2018-Jan-27 01:16N 08°19' W 015°09'310.7
2018-Jan-27 00:59N 08°21' W 015°12'3210.7
2018-Jan-26 21:59N 08°43' W 015°36'510.6
2018-Jan-26 21:28N 08°47' W 015°40'610.5
2018-Jan-26 20:53N 08°51' W 015°45'410.6
2018-Jan-26 20:30N 08°53' W 015°47'510.6
2018-Jan-26 20:00N 08°57' W 015°51'510.6
2018-Jan-26 19:30N 09°01' W 015°56'510.5
2018-Jan-26 19:00N 09°04' W 015°60'510.5
2018-Jan-26 18:30N 09°07' W 016°04'510.4
2018-Jan-26 18:01N 09°11' W 016°08'510.7
2018-Jan-26 17:30N 09°14' W 016°12'610.9
2018-Jan-26 16:59N 09°18' W 016°16'511.0
2018-Jan-26 16:31N 09°22' W 016°20'610.9
2018-Jan-26 15:58N 09°26' W 016°24'510.9
2018-Jan-26 15:30N 09°29' W 016°28'1611.0
2018-Jan-26 14:05N 09°40' W 016°39'110.8
2018-Jan-26 13:59N 09°41' W 016°40'510.9
2018-Jan-26 13:30N 09°45' W 016°43'611.2
2018-Jan-26 13:00N 09°50' W 016°46'611.2
2018-Jan-26 12:28N 09°55' W 016°48'511.4
2018-Jan-26 12:01N 09°60' W 016°51'611.4
2018-Jan-26 11:30N 10°05' W 016°54'611.2
2018-Jan-26 11:00N 10°10' W 016°57'611.3
2018-Jan-26 10:30N 10°15' W 016°60'611.4
2018-Jan-26 10:00N 10°20' W 017°02'611.6
2018-Jan-26 09:30N 10°25' W 017°05'611.6
2018-Jan-26 09:00N 10°30' W 017°08'611.3
2018-Jan-26 08:30N 10°35' W 017°10'  
2018-Jan-22 08:20N 27°03' W 014°36'910.8
2018-Jan-22 07:29N 27°10' W 014°30'510.9
2018-Jan-22 07:00N 27°15' W 014°27'511.0
2018-Jan-22 06:31N 27°19' W 014°23'911.3
2018-Jan-22 05:42N 27°27' W 014°18'311.2
2018-Jan-22 05:28N 27°29' W 014°16'511.3
2018-Jan-22 05:01N 27°33' W 014°13'611.7
2018-Jan-22 04:31N 27°38' W 014°09'611.3
2018-Jan-22 04:00N 27°43' W 014°06'611.0
2018-Jan-22 03:27N 27°48' W 014°02'511.0
2018-Jan-22 03:00N 27°52' W 013°59'510.9
2018-Jan-22 02:30N 27°57' W 013°56'1510.7
2018-Jan-22 01:07N 28°10' W 013°48'110.9
2018-Jan-22 01:00N 28°11' W 013°47'1611.2
2018-Jan-21 23:33N 28°25' W 013°38'2511.3
2018-Jan-21 21:20N 28°47' W 013°24'811.4
2018-Jan-21 20:40N 28°54' W 013°19'511.0
2018-Jan-21 20:11N 28°58' W 013°15'411.0
2018-Jan-21 19:50N 29°01' W 013°13'411.0
2018-Jan-21 19:27N 29°04' W 013°10'510.9
2018-Jan-21 19:01N 29°08' W 013°06'510.7
2018-Jan-21 18:30N 29°12' W 013°02'510.7
2018-Jan-21 18:01N 29°16' W 012°59'7610.3
2018-Jan-21 10:38N 30°16' W 012°05'510.7
2018-Jan-21 10:09N 30°20' W 012°01'110.7
2018-Jan-21 10:00N 30°22' W 011°60'510.5
2018-Jan-21 09:30N 30°26' W 011°56'710.6
2018-Jan-21 08:50N 30°31' W 011°51'410.7
2018-Jan-21 08:30N 30°34' W 011°48'610.6
2018-Jan-21 07:58N 30°38' W 011°44'510.5
2018-Jan-21 07:28N 30°42' W 011°40'510.5
2018-Jan-21 07:00N 30°46' W 011°37'3610.5
2018-Jan-21 03:33N 31°16' W 011°13'110.4
2018-Jan-21 03:29N 31°17' W 011°12'3710.6
2018-Jan-21 00:00N 31°47' W 010°47'357 9.7
2018-Jan-19 11:21N 35°57' W 005°41'3 9.6
2018-Jan-19 11:00N 35°57' W 005°37'4 8.5
2018-Jan-19 10:30N 35°58' W 005°32'4 7.8
2018-Jan-19 10:00N 35°59' W 005°27'4 7.9
2018-Jan-19 09:30N 36°01' W 005°22'4 8.2
2018-Jan-19 09:00N 36°02' W 005°17'5 9.7
2018-Jan-19 08:30N 36°03' W 005°12'5 9.3
2018-Jan-19 08:00N 36°04' W 005°06'4 8.3
2018-Jan-19 07:30N 36°05' W 005°01'4 7.7
2018-Jan-19 06:59N 36°06' W 004°56'4 7.7
2018-Jan-19 06:30N 36°08' W 004°52'8 8.9
2018-Jan-19 05:36N 36°10' W 004°43'  

Dump ship's entire track history